Aviation Digital Data Service (ADDS)

Output produced by TAFs form (0537 UTC 20 September 2017)
found at http://www.aviationweather.gov/adds/tafs/
 
KHOU 200520Z 2006/2106 16005KT P6SM FEW020 BKN250 
     FM201400 18008KT P6SM SCT030 
     FM201800 18010KT P6SM VCSH SCT025 BKN040 
     FM210100 15006KT P6SM FEW250
       
KLBX 200520Z 2006/2106 15004KT P6SM BKN250 
     FM201000 VRB03KT 6SM BR SCT015 
     FM201400 17010KT P6SM VCSH SCT025 
     FM202100 17011KT P6SM FEW250 
     FM210100 15006KT P6SM FEW250